sensor_id;sensor_type;location;lat;lon;timestamp;P1;durP1;ratioP1;P2;durP2;ratioP2
70757;SDS011;59316;52.964;7.102;2023-04-24T00:00:52;1.00;;;0.80;;
70757;SDS011;59316;52.964;7.102;2023-04-24T00:06:14;3.10;;;1.42;;
70757;SDS011;59316;52.964;7.102;2023-04-24T00:11:35;1.42;;;1.20;;
70757;SDS011;59316;52.964;7.102;2023-04-24T00:16:57;1.77;;;1.40;;
70757;SDS011;59316;52.964;7.102;2023-04-24T00:22:18;2.00;;;1.58;;
70757;SDS011;59316;52.964;7.102;2023-04-24T00:27:40;2.58;;;1.90;;
70757;SDS011;59316;52.964;7.102;2023-04-24T00:33:01;3.63;;;2.33;;
70757;SDS011;59316;52.964;7.102;2023-04-24T00:38:24;3.63;;;2.60;;
70757;SDS011;59316;52.964;7.102;2023-04-24T00:43:45;4.32;;;2.60;;
70757;SDS011;59316;52.964;7.102;2023-04-24T00:49:07;4.45;;;3.05;;
70757;SDS011;59316;52.964;7.102;2023-04-24T00:54:28;6.72;;;4.07;;
70757;SDS011;59316;52.964;7.102;2023-04-24T00:59:50;4.82;;;3.03;;
70757;SDS011;59316;52.964;7.102;2023-04-24T01:05:13;3.90;;;2.78;;
70757;SDS011;59316;52.964;7.102;2023-04-24T01:10:36;2.97;;;2.45;;
70757;SDS011;59316;52.964;7.102;2023-04-24T01:15:58;4.80;;;2.80;;
70757;SDS011;59316;52.964;7.102;2023-04-24T01:21:20;4.90;;;2.85;;
70757;SDS011;59316;52.964;7.102;2023-04-24T01:26:44;4.93;;;3.08;;
70757;SDS011;59316;52.964;7.102;2023-04-24T01:32:06;5.20;;;3.53;;
70757;SDS011;59316;52.964;7.102;2023-04-24T01:37:28;9.35;;;4.50;;
70757;SDS011;59316;52.964;7.102;2023-04-24T01:42:49;5.28;;;3.75;;
70757;SDS011;59316;52.964;7.102;2023-04-24T01:48:12;5.72;;;4.10;;
70757;SDS011;59316;52.964;7.102;2023-04-24T01:53:34;5.65;;;4.05;;
70757;SDS011;59316;52.964;7.102;2023-04-24T01:58:55;5.70;;;3.67;;
70757;SDS011;59316;52.964;7.102;2023-04-24T02:04:18;4.10;;;3.30;;
70757;SDS011;59316;52.964;7.102;2023-04-24T02:09:40;4.88;;;3.47;;
70757;SDS011;59316;52.964;7.102;2023-04-24T02:15:02;7.90;;;4.30;;
70757;SDS011;59316;52.964;7.102;2023-04-24T02:20:24;6.82;;;4.35;;
70757;SDS011;59316;52.964;7.102;2023-04-24T02:25:47;7.65;;;4.97;;
70757;SDS011;59316;52.964;7.102;2023-04-24T02:31:10;8.20;;;5.28;;
70757;SDS011;59316;52.964;7.102;2023-04-24T02:36:34;9.30;;;5.87;;
70757;SDS011;59316;52.964;7.102;2023-04-24T02:41:55;10.40;;;6.30;;
70757;SDS011;59316;52.964;7.102;2023-04-24T02:47:16;12.35;;;5.88;;
70757;SDS011;59316;52.964;7.102;2023-04-24T02:52:39;8.80;;;5.53;;
70757;SDS011;59316;52.964;7.102;2023-04-24T02:58:00;10.32;;;5.75;;
70757;SDS011;59316;52.964;7.102;2023-04-24T03:03:23;12.70;;;6.40;;
70757;SDS011;59316;52.964;7.102;2023-04-24T03:08:44;11.07;;;6.43;;
70757;SDS011;59316;52.964;7.102;2023-04-24T03:14:06;10.18;;;6.03;;
70757;SDS011;59316;52.964;7.102;2023-04-24T03:19:30;10.93;;;6.22;;
70757;SDS011;59316;52.964;7.102;2023-04-24T03:24:57;10.98;;;6.63;;
70757;SDS011;59316;52.964;7.102;2023-04-24T03:30:19;10.05;;;5.95;;
70757;SDS011;59316;52.964;7.102;2023-04-24T03:35:48;9.73;;;5.90;;
70757;SDS011;59316;52.964;7.102;2023-04-24T03:41:10;9.45;;;5.47;;
70757;SDS011;59316;52.964;7.102;2023-04-24T03:46:37;9.18;;;4.97;;
70757;SDS011;59316;52.964;7.102;2023-04-24T03:51:59;7.38;;;4.72;;
70757;SDS011;59316;52.964;7.102;2023-04-24T03:57:21;9.68;;;4.97;;
70757;SDS011;59316;52.964;7.102;2023-04-24T04:02:54;8.00;;;4.90;;
70757;SDS011;59316;52.964;7.102;2023-04-24T04:08:16;7.25;;;4.32;;
70757;SDS011;59316;52.964;7.102;2023-04-24T04:13:37;8.65;;;5.05;;
70757;SDS011;59316;52.964;7.102;2023-04-24T04:18:59;9.15;;;5.45;;
70757;SDS011;59316;52.964;7.102;2023-04-24T04:24:20;8.57;;;5.63;;
70757;SDS011;59316;52.964;7.102;2023-04-24T04:29:42;9.60;;;5.78;;
70757;SDS011;59316;52.964;7.102;2023-04-24T04:35:07;8.77;;;5.93;;
70757;SDS011;59316;52.964;7.102;2023-04-24T04:40:29;9.38;;;5.72;;
70757;SDS011;59316;52.964;7.102;2023-04-24T04:45:55;7.88;;;4.57;;
70757;SDS011;59316;52.964;7.102;2023-04-24T04:51:32;7.68;;;5.25;;
70757;SDS011;59316;52.964;7.102;2023-04-24T04:56:54;9.00;;;5.10;;
70757;SDS011;59316;52.964;7.102;2023-04-24T05:02:16;8.45;;;4.75;;
70757;SDS011;59316;52.964;7.102;2023-04-24T05:07:37;10.50;;;5.25;;
70757;SDS011;59316;52.964;7.102;2023-04-24T05:12:59;10.25;;;5.50;;
70757;SDS011;59316;52.964;7.102;2023-04-24T05:18:21;10.60;;;5.85;;
70757;SDS011;59316;52.964;7.102;2023-04-24T05:23:42;8.52;;;4.93;;
70757;SDS011;59316;52.964;7.102;2023-04-24T05:29:08;10.13;;;5.68;;
70757;SDS011;59316;52.964;7.102;2023-04-24T05:34:30;9.63;;;5.47;;
70757;SDS011;59316;52.964;7.102;2023-04-24T05:39:51;9.55;;;5.53;;
70757;SDS011;59316;52.964;7.102;2023-04-24T05:45:13;8.25;;;4.95;;
70757;SDS011;59316;52.964;7.102;2023-04-24T05:50:34;8.02;;;5.13;;
70757;SDS011;59316;52.964;7.102;2023-04-24T05:55:57;9.60;;;5.30;;
70757;SDS011;59316;52.964;7.102;2023-04-24T06:01:18;7.20;;;4.13;;
70757;SDS011;59316;52.964;7.102;2023-04-24T06:06:47;6.53;;;3.63;;
70757;SDS011;59316;52.964;7.102;2023-04-24T06:12:08;6.80;;;3.47;;
70757;SDS011;59316;52.964;7.102;2023-04-24T06:17:59;4.45;;;3.05;;
70757;SDS011;59316;52.964;7.102;2023-04-24T06:23:21;3.72;;;2.63;;
70757;SDS011;59316;52.964;7.102;2023-04-24T06:28:42;3.88;;;2.33;;
70757;SDS011;59316;52.964;7.102;2023-04-24T06:34:04;4.05;;;2.40;;
70757;SDS011;59316;52.964;7.102;2023-04-24T06:39:25;4.65;;;2.80;;
70757;SDS011;59316;52.964;7.102;2023-04-24T06:44:47;3.50;;;2.38;;
70757;SDS011;59316;52.964;7.102;2023-04-24T06:50:08;3.75;;;2.35;;
70757;SDS011;59316;52.964;7.102;2023-04-24T06:55:30;2.97;;;2.05;;
70757;SDS011;59316;52.964;7.102;2023-04-24T07:00:52;3.17;;;2.30;;
70757;SDS011;59316;52.964;7.102;2023-04-24T07:06:13;2.78;;;2.00;;
70757;SDS011;59316;52.964;7.102;2023-04-24T07:11:35;2.42;;;1.70;;
70757;SDS011;59316;52.964;7.102;2023-04-24T07:16:56;3.38;;;1.75;;
70757;SDS011;59316;52.964;7.102;2023-04-24T07:22:17;3.22;;;2.00;;
70757;SDS011;59316;52.964;7.102;2023-04-24T07:27:39;3.00;;;1.92;;
70757;SDS011;59316;52.964;7.102;2023-04-24T07:33:00;2.42;;;1.77;;
70757;SDS011;59316;52.964;7.102;2023-04-24T07:38:22;3.30;;;1.90;;
70757;SDS011;59316;52.964;7.102;2023-04-24T07:43:44;2.38;;;1.65;;
70757;SDS011;59316;52.964;7.102;2023-04-24T07:49:05;2.90;;;1.85;;
70757;SDS011;59316;52.964;7.102;2023-04-24T07:54:33;3.25;;;1.63;;
70757;SDS011;59316;52.964;7.102;2023-04-24T07:59:54;2.05;;;1.58;;
70757;SDS011;59316;52.964;7.102;2023-04-24T08:05:16;2.55;;;1.70;;
70757;SDS011;59316;52.964;7.102;2023-04-24T08:10:38;2.25;;;1.70;;
70757;SDS011;59316;52.964;7.102;2023-04-24T08:15:59;2.55;;;1.63;;
70757;SDS011;59316;52.964;7.102;2023-04-24T08:21:21;2.45;;;1.85;;
70757;SDS011;59316;52.964;7.102;2023-04-24T08:26:42;3.72;;;2.47;;
70757;SDS011;59316;52.964;7.102;2023-04-24T08:32:04;3.47;;;1.60;;
70757;SDS011;59316;52.964;7.102;2023-04-24T08:37:26;1.40;;;1.20;;
70757;SDS011;59316;52.964;7.102;2023-04-24T08:42:47;3.38;;;1.60;;
70757;SDS011;59316;52.964;7.102;2023-04-24T08:48:11;4.53;;;1.57;;
70757;SDS011;59316;52.964;7.102;2023-04-24T08:53:46;3.38;;;2.55;;
70757;SDS011;59316;52.964;7.102;2023-04-24T08:59:08;5.10;;;3.30;;
70757;SDS011;59316;52.964;7.102;2023-04-24T09:04:29;10.38;;;4.30;;
70757;SDS011;59316;52.964;7.102;2023-04-24T09:09:52;8.70;;;4.72;;
70757;SDS011;59316;52.964;7.102;2023-04-24T09:15:13;11.32;;;5.63;;
70757;SDS011;59316;52.964;7.102;2023-04-24T09:20:35;21.42;;;7.72;;
70757;SDS011;59316;52.964;7.102;2023-04-24T09:26:20;21.15;;;9.05;;
70757;SDS011;59316;52.964;7.102;2023-04-24T09:31:42;21.00;;;10.38;;
70757;SDS011;59316;52.964;7.102;2023-04-24T09:37:06;22.60;;;10.15;;
70757;SDS011;59316;52.964;7.102;2023-04-24T09:42:28;29.75;;;10.07;;
70757;SDS011;59316;52.964;7.102;2023-04-24T09:47:53;22.58;;;9.70;;
70757;SDS011;59316;52.964;7.102;2023-04-24T09:53:15;26.98;;;10.15;;
70757;SDS011;59316;52.964;7.102;2023-04-24T09:58:37;23.80;;;9.85;;
70757;SDS011;59316;52.964;7.102;2023-04-24T10:03:58;24.35;;;11.52;;
70757;SDS011;59316;52.964;7.102;2023-04-24T10:09:21;23.42;;;11.00;;
70757;SDS011;59316;52.964;7.102;2023-04-24T10:14:45;25.05;;;11.40;;
70757;SDS011;59316;52.964;7.102;2023-04-24T10:20:08;28.85;;;13.65;;
70757;SDS011;59316;52.964;7.102;2023-04-24T10:25:32;22.52;;;11.05;;
70757;SDS011;59316;52.964;7.102;2023-04-24T10:30:55;19.52;;;10.10;;
70757;SDS011;59316;52.964;7.102;2023-04-24T10:36:18;15.50;;;8.77;;
70757;SDS011;59316;52.964;7.102;2023-04-24T10:41:43;16.42;;;9.02;;
70757;SDS011;59316;52.964;7.102;2023-04-24T10:47:05;18.15;;;7.72;;
70757;SDS011;59316;52.964;7.102;2023-04-24T10:52:49;16.50;;;8.52;;
70757;SDS011;59316;52.964;7.102;2023-04-24T10:58:10;19.38;;;8.45;;
70757;SDS011;59316;52.964;7.102;2023-04-24T11:03:32;18.40;;;8.73;;
70757;SDS011;59316;52.964;7.102;2023-04-24T11:08:59;15.47;;;7.20;;
70757;SDS011;59316;52.964;7.102;2023-04-24T11:14:23;13.18;;;6.25;;
70757;SDS011;59316;52.964;7.102;2023-04-24T11:19:45;9.57;;;5.03;;
70757;SDS011;59316;52.964;7.102;2023-04-24T11:25:11;13.98;;;5.15;;
70757;SDS011;59316;52.964;7.102;2023-04-24T11:30:33;11.00;;;4.88;;
70757;SDS011;59316;52.964;7.102;2023-04-24T11:35:55;14.10;;;5.07;;
70757;SDS011;59316;52.964;7.102;2023-04-24T11:41:16;10.30;;;3.78;;
70757;SDS011;59316;52.964;7.102;2023-04-24T11:46:39;5.82;;;2.95;;
70757;SDS011;59316;52.964;7.102;2023-04-24T11:52:00;9.10;;;3.38;;
70757;SDS011;59316;52.964;7.102;2023-04-24T11:57:23;10.35;;;2.67;;
70757;SDS011;59316;52.964;7.102;2023-04-24T12:02:46;10.13;;;2.78;;
70757;SDS011;59316;52.964;7.102;2023-04-24T12:08:09;7.63;;;2.50;;
70757;SDS011;59316;52.964;7.102;2023-04-24T12:13:31;6.03;;;2.35;;
70757;SDS011;59316;52.964;7.102;2023-04-24T12:18:52;7.53;;;2.65;;
70757;SDS011;59316;52.964;7.102;2023-04-24T12:24:14;8.93;;;2.45;;
70757;SDS011;59316;52.964;7.102;2023-04-24T12:29:35;9.23;;;2.58;;
70757;SDS011;59316;52.964;7.102;2023-04-24T12:34:57;9.23;;;2.50;;
70757;SDS011;59316;52.964;7.102;2023-04-24T12:40:19;8.18;;;2.53;;
70757;SDS011;59316;52.964;7.102;2023-04-24T12:45:42;9.13;;;2.67;;
70757;SDS011;59316;52.964;7.102;2023-04-24T12:51:04;3.90;;;2.00;;
70757;SDS011;59316;52.964;7.102;2023-04-24T12:56:26;6.50;;;1.83;;
70757;SDS011;59316;52.964;7.102;2023-04-24T13:01:47;3.13;;;1.67;;
70757;SDS011;59316;52.964;7.102;2023-04-24T13:07:09;3.83;;;1.52;;
70757;SDS011;59316;52.964;7.102;2023-04-24T13:12:30;3.60;;;1.50;;
70757;SDS011;59316;52.964;7.102;2023-04-24T13:17:52;5.85;;;2.00;;
70757;SDS011;59316;52.964;7.102;2023-04-24T13:23:13;4.15;;;1.75;;
70757;SDS011;59316;52.964;7.102;2023-04-24T13:28:35;3.03;;;1.85;;
70757;SDS011;59316;52.964;7.102;2023-04-24T13:33:56;6.13;;;1.98;;
70757;SDS011;59316;52.964;7.102;2023-04-24T13:39:18;4.68;;;1.80;;
70757;SDS011;59316;52.964;7.102;2023-04-24T13:44:39;6.68;;;1.67;;
70757;SDS011;59316;52.964;7.102;2023-04-24T13:50:01;10.00;;;1.80;;
70757;SDS011;59316;52.964;7.102;2023-04-24T13:55:23;4.55;;;1.83;;
70757;SDS011;59316;52.964;7.102;2023-04-24T14:00:44;3.33;;;1.67;;
70757;SDS011;59316;52.964;7.102;2023-04-24T14:06:06;4.05;;;1.30;;
70757;SDS011;59316;52.964;7.102;2023-04-24T14:11:27;3.35;;;1.30;;
70757;SDS011;59316;52.964;7.102;2023-04-24T14:16:49;1.88;;;1.02;;
70757;SDS011;59316;52.964;7.102;2023-04-24T14:22:10;3.40;;;1.13;;
70757;SDS011;59316;52.964;7.102;2023-04-24T14:27:32;4.70;;;1.00;;
70757;SDS011;59316;52.964;7.102;2023-04-24T14:32:53;3.70;;;1.00;;
70757;SDS011;59316;52.964;7.102;2023-04-24T14:38:14;4.78;;;1.00;;
70757;SDS011;59316;52.964;7.102;2023-04-24T14:43:36;4.07;;;1.17;;
70757;SDS011;59316;52.964;7.102;2023-04-24T14:48:57;3.35;;;1.10;;
70757;SDS011;59316;52.964;7.102;2023-04-24T14:54:19;2.28;;;1.08;;
70757;SDS011;59316;52.964;7.102;2023-04-24T14:59:41;2.17;;;0.80;;
70757;SDS011;59316;52.964;7.102;2023-04-24T15:05:02;1.35;;;1.05;;
70757;SDS011;59316;52.964;7.102;2023-04-24T15:10:25;2.10;;;1.10;;
70757;SDS011;59316;52.964;7.102;2023-04-24T15:15:46;5.72;;;1.40;;
70757;SDS011;59316;52.964;7.102;2023-04-24T15:21:08;4.28;;;1.65;;
70757;SDS011;59316;52.964;7.102;2023-04-24T15:26:30;7.65;;;1.73;;
70757;SDS011;59316;52.964;7.102;2023-04-24T15:31:51;10.23;;;2.00;;
70757;SDS011;59316;52.964;7.102;2023-04-24T15:37:13;7.55;;;3.10;;
70757;SDS011;59316;52.964;7.102;2023-04-24T15:42:34;9.10;;;2.50;;
70757;SDS011;59316;52.964;7.102;2023-04-24T15:47:56;4.75;;;2.03;;
70757;SDS011;59316;52.964;7.102;2023-04-24T15:53:18;6.45;;;1.63;;
70757;SDS011;59316;52.964;7.102;2023-04-24T15:58:39;6.15;;;2.20;;
70757;SDS011;59316;52.964;7.102;2023-04-24T16:04:00;5.72;;;2.13;;
70757;SDS011;59316;52.964;7.102;2023-04-24T16:09:22;9.95;;;2.25;;
70757;SDS011;59316;52.964;7.102;2023-04-24T16:14:43;6.25;;;2.28;;
70757;SDS011;59316;52.964;7.102;2023-04-24T16:20:05;9.52;;;2.08;;
70757;SDS011;59316;52.964;7.102;2023-04-24T16:25:27;5.88;;;2.22;;
70757;SDS011;59316;52.964;7.102;2023-04-24T16:30:49;7.72;;;2.10;;
70757;SDS011;59316;52.964;7.102;2023-04-24T16:36:10;10.80;;;2.50;;
70757;SDS011;59316;52.964;7.102;2023-04-24T16:41:32;9.98;;;2.10;;
70757;SDS011;59316;52.964;7.102;2023-04-24T16:46:53;5.55;;;2.30;;
70757;SDS011;59316;52.964;7.102;2023-04-24T16:52:15;6.40;;;2.20;;
70757;SDS011;59316;52.964;7.102;2023-04-24T16:57:36;11.88;;;3.35;;
70757;SDS011;59316;52.964;7.102;2023-04-24T17:02:58;6.47;;;2.42;;
70757;SDS011;59316;52.964;7.102;2023-04-24T17:08:19;6.45;;;2.40;;
70757;SDS011;59316;52.964;7.102;2023-04-24T17:13:41;7.35;;;3.25;;
70757;SDS011;59316;52.964;7.102;2023-04-24T17:19:03;10.70;;;2.40;;
70757;SDS011;59316;52.964;7.102;2023-04-24T17:24:25;9.85;;;3.05;;
70757;SDS011;59316;52.964;7.102;2023-04-24T17:29:46;8.15;;;3.03;;
70757;SDS011;59316;52.964;7.102;2023-04-24T17:35:08;10.32;;;2.70;;
70757;SDS011;59316;52.964;7.102;2023-04-24T17:40:30;5.68;;;2.22;;
70757;SDS011;59316;52.964;7.102;2023-04-24T17:45:52;7.50;;;2.70;;
70757;SDS011;59316;52.964;7.102;2023-04-24T17:51:14;6.50;;;2.97;;
70757;SDS011;59316;52.964;7.102;2023-04-24T17:56:35;11.40;;;2.90;;
70757;SDS011;59316;52.964;7.102;2023-04-24T18:01:57;8.30;;;3.15;;
70757;SDS011;59316;52.964;7.102;2023-04-24T18:07:19;12.82;;;2.58;;
70757;SDS011;59316;52.964;7.102;2023-04-24T18:12:40;12.38;;;3.03;;
70757;SDS011;59316;52.964;7.102;2023-04-24T18:18:02;7.60;;;2.53;;
70757;SDS011;59316;52.964;7.102;2023-04-24T18:23:23;7.13;;;3.65;;
70757;SDS011;59316;52.964;7.102;2023-04-24T18:28:45;9.02;;;2.90;;
70757;SDS011;59316;52.964;7.102;2023-04-24T18:34:06;6.35;;;2.60;;
70757;SDS011;59316;52.964;7.102;2023-04-24T18:39:28;3.70;;;2.53;;
70757;SDS011;59316;52.964;7.102;2023-04-24T18:44:49;7.70;;;2.53;;
70757;SDS011;59316;52.964;7.102;2023-04-24T18:50:11;4.90;;;2.22;;
70757;SDS011;59316;52.964;7.102;2023-04-24T18:55:33;3.78;;;1.77;;
70757;SDS011;59316;52.964;7.102;2023-04-24T19:00:54;3.13;;;2.28;;
70757;SDS011;59316;52.964;7.102;2023-04-24T19:06:16;3.85;;;2.30;;
70757;SDS011;59316;52.964;7.102;2023-04-24T19:11:37;6.43;;;2.38;;
70757;SDS011;59316;52.964;7.102;2023-04-24T19:16:59;5.28;;;2.10;;
70757;SDS011;59316;52.964;7.102;2023-04-24T19:22:21;4.90;;;2.75;;
70757;SDS011;59316;52.964;7.102;2023-04-24T19:27:42;5.70;;;3.05;;
70757;SDS011;59316;52.964;7.102;2023-04-24T19:33:03;7.10;;;3.17;;
70757;SDS011;59316;52.964;7.102;2023-04-24T19:38:25;6.85;;;3.72;;
70757;SDS011;59316;52.964;7.102;2023-04-24T19:43:47;7.05;;;2.97;;
70757;SDS011;59316;52.964;7.102;2023-04-24T19:49:08;7.07;;;2.97;;
70757;SDS011;59316;52.964;7.102;2023-04-24T19:54:30;12.07;;;3.33;;
70757;SDS011;59316;52.964;7.102;2023-04-24T19:59:51;8.75;;;3.28;;
70757;SDS011;59316;52.964;7.102;2023-04-24T20:05:13;10.13;;;3.53;;
70757;SDS011;59316;52.964;7.102;2023-04-24T20:10:35;6.93;;;3.13;;
70757;SDS011;59316;52.964;7.102;2023-04-24T20:15:56;7.22;;;3.00;;
70757;SDS011;59316;52.964;7.102;2023-04-24T20:21:18;14.18;;;3.95;;
70757;SDS011;59316;52.964;7.102;2023-04-24T20:26:39;12.15;;;4.00;;
70757;SDS011;59316;52.964;7.102;2023-04-24T20:32:01;9.57;;;3.72;;
70757;SDS011;59316;52.964;7.102;2023-04-24T20:37:23;9.10;;;3.00;;
70757;SDS011;59316;52.964;7.102;2023-04-24T20:42:44;9.35;;;3.90;;
70757;SDS011;59316;52.964;7.102;2023-04-24T20:48:06;10.70;;;3.47;;
70757;SDS011;59316;52.964;7.102;2023-04-24T20:53:27;11.05;;;3.75;;
70757;SDS011;59316;52.964;7.102;2023-04-24T20:58:49;8.10;;;3.72;;
70757;SDS011;59316;52.964;7.102;2023-04-24T21:04:13;10.18;;;3.38;;
70757;SDS011;59316;52.964;7.102;2023-04-24T21:09:35;15.02;;;3.88;;
70757;SDS011;59316;52.964;7.102;2023-04-24T21:14:56;10.93;;;3.67;;
70757;SDS011;59316;52.964;7.102;2023-04-24T21:20:18;10.73;;;3.85;;
70757;SDS011;59316;52.964;7.102;2023-04-24T21:25:39;10.40;;;4.35;;
70757;SDS011;59316;52.964;7.102;2023-04-24T21:31:01;13.15;;;3.90;;
70757;SDS011;59316;52.964;7.102;2023-04-24T21:36:22;17.08;;;4.40;;
70757;SDS011;59316;52.964;7.102;2023-04-24T21:41:44;13.73;;;4.35;;
70757;SDS011;59316;52.964;7.102;2023-04-24T21:47:06;11.88;;;3.83;;
70757;SDS011;59316;52.964;7.102;2023-04-24T21:52:27;13.07;;;3.88;;
70757;SDS011;59316;52.964;7.102;2023-04-24T21:57:49;15.82;;;3.88;;
70757;SDS011;59316;52.964;7.102;2023-04-24T22:03:11;21.25;;;4.25;;
70757;SDS011;59316;52.964;7.102;2023-04-24T22:08:32;16.45;;;3.88;;
70757;SDS011;59316;52.964;7.102;2023-04-24T22:13:54;20.33;;;4.38;;
70757;SDS011;59316;52.964;7.102;2023-04-24T22:19:15;23.58;;;4.43;;
70757;SDS011;59316;52.964;7.102;2023-04-24T22:24:37;32.70;;;5.40;;
70757;SDS011;59316;52.964;7.102;2023-04-24T22:29:59;19.80;;;4.88;;
70757;SDS011;59316;52.964;7.102;2023-04-24T22:35:20;24.17;;;5.63;;
70757;SDS011;59316;52.964;7.102;2023-04-24T22:40:42;21.67;;;4.30;;
70757;SDS011;59316;52.964;7.102;2023-04-24T22:46:04;31.35;;;5.18;;
70757;SDS011;59316;52.964;7.102;2023-04-24T22:51:25;19.23;;;4.13;;
70757;SDS011;59316;52.964;7.102;2023-04-24T22:56:47;18.70;;;4.03;;
70757;SDS011;59316;52.964;7.102;2023-04-24T23:02:08;23.98;;;5.05;;
70757;SDS011;59316;52.964;7.102;2023-04-24T23:07:30;20.88;;;4.53;;
70757;SDS011;59316;52.964;7.102;2023-04-24T23:12:51;25.10;;;4.05;;
70757;SDS011;59316;52.964;7.102;2023-04-24T23:18:13;19.17;;;4.25;;
70757;SDS011;59316;52.964;7.102;2023-04-24T23:23:34;14.38;;;3.45;;
70757;SDS011;59316;52.964;7.102;2023-04-24T23:28:55;15.80;;;3.90;;
70757;SDS011;59316;52.964;7.102;2023-04-24T23:34:17;25.02;;;3.97;;
70757;SDS011;59316;52.964;7.102;2023-04-24T23:39:39;15.10;;;4.30;;
70757;SDS011;59316;52.964;7.102;2023-04-24T23:45:00;23.02;;;4.20;;
70757;SDS011;59316;52.964;7.102;2023-04-24T23:50:22;17.45;;;4.20;;
70757;SDS011;59316;52.964;7.102;2023-04-24T23:55:43;20.17;;;3.72;;
